createdAt,value
2023-05-04T00:00:55.593Z,102622.97
2023-05-04T00:03:23.948Z,102640.13
2023-05-04T00:05:52.698Z,102636.53
2023-05-04T00:08:22.286Z,102641.78
2023-05-04T00:10:50.460Z,102639.88
2023-05-04T00:13:18.729Z,102629.19
2023-05-04T00:15:46.880Z,102640.19
2023-05-04T00:18:15.091Z,102625.38
2023-05-04T00:20:43.890Z,102645.91
2023-05-04T00:23:12.356Z,102633.16
2023-05-04T00:25:42.124Z,102646.84
2023-05-04T00:28:10.745Z,102649.47
2023-05-04T00:30:38.828Z,102639.91
2023-05-04T00:33:06.874Z,102642.16
2023-05-04T00:35:37.344Z,102626.16
2023-05-04T00:38:05.466Z,102645.50
2023-05-04T00:40:35.199Z,102641.59
2023-05-04T00:43:05.107Z,102647.59
2023-05-04T00:45:33.567Z,102643.03
2023-05-04T00:48:04.024Z,102647.47
2023-05-04T00:50:32.675Z,102637.97
2023-05-04T00:53:06.899Z,102640.00
2023-05-04T00:55:37.807Z,102637.09
2023-05-04T00:58:08.267Z,102647.47
2023-05-04T01:00:37.010Z,102639.72
2023-05-04T01:03:05.682Z,102655.22
2023-05-04T01:05:39.958Z,102653.31
2023-05-04T01:08:15.144Z,102648.63
2023-05-04T01:10:51.190Z,102651.94
2023-05-04T01:13:23.647Z,102646.88
2023-05-04T01:15:53.059Z,102652.47
2023-05-04T01:18:21.281Z,102655.59
2023-05-04T01:20:59.725Z,102658.53
2023-05-04T01:23:29.356Z,102656.81
2023-05-04T01:26:07.332Z,102657.56
2023-05-04T01:28:47.555Z,102649.16
2023-05-04T01:31:17.411Z,102666.13
2023-05-04T01:33:46.573Z,102650.75
2023-05-04T01:36:15.154Z,102668.13
2023-05-04T01:38:45.071Z,102670.19
2023-05-04T01:41:13.080Z,102661.97
2023-05-04T01:43:41.664Z,102655.25
2023-05-04T01:46:10.200Z,102636.59
2023-05-04T01:48:38.591Z,102672.16
2023-05-04T01:51:07.009Z,102671.31
2023-05-04T01:53:35.356Z,102678.94
2023-05-04T01:56:05.328Z,102678.06
2023-05-04T01:58:33.355Z,102684.44
2023-05-04T02:01:01.889Z,102671.69
2023-05-04T02:03:31.400Z,102681.47
2023-05-04T02:05:59.892Z,102682.94
2023-05-04T02:08:28.340Z,102691.00
2023-05-04T02:10:56.424Z,102686.72
2023-05-04T02:13:25.868Z,102690.66
2023-05-04T02:15:54.078Z,102668.56
2023-05-04T02:18:22.082Z,102689.59
2023-05-04T02:20:50.369Z,102707.31
2023-05-04T02:23:18.664Z,102703.13
2023-05-04T02:25:46.798Z,102700.69
2023-05-04T02:28:15.020Z,102706.16
2023-05-04T02:30:45.020Z,102710.13
2023-05-04T02:33:13.139Z,102707.53
2023-05-04T02:35:41.502Z,102707.34
2023-05-04T02:38:10.206Z,102705.28
2023-05-04T02:40:38.231Z,102705.44
2023-05-04T02:43:06.275Z,102710.41
2023-05-04T02:45:34.715Z,102710.69
2023-05-04T02:48:04.364Z,102710.16
2023-05-04T02:50:32.618Z,102712.88
2023-05-04T02:53:01.135Z,102714.25
2023-05-04T02:55:29.450Z,102716.16
2023-05-04T02:57:57.457Z,102712.34
2023-05-04T03:00:26.126Z,102718.13
2023-05-04T03:02:54.203Z,102724.69
2023-05-04T03:05:23.934Z,102733.81
2023-05-04T03:07:52.329Z,102725.50
2023-05-04T03:10:20.436Z,102704.50
2023-05-04T03:12:48.597Z,102720.00
2023-05-04T03:15:16.969Z,102720.16
2023-05-04T03:17:45.104Z,102717.91
2023-05-04T03:20:14.608Z,102696.19
2023-05-04T03:22:44.391Z,102720.63
2023-05-04T03:25:12.516Z,102730.19
2023-05-04T03:27:40.963Z,102742.03
2023-05-04T03:30:10.118Z,102729.44
2023-05-04T03:32:38.180Z,102740.59
2023-05-04T03:35:07.416Z,102747.53
2023-05-04T03:37:39.982Z,102743.09
2023-05-04T03:40:10.693Z,102741.53
2023-05-04T03:42:39.405Z,102751.50
2023-05-04T03:45:09.130Z,102751.88
2023-05-04T03:47:37.232Z,102751.91
2023-05-04T03:50:06.545Z,102761.66
2023-05-04T03:52:35.053Z,102752.22
2023-05-04T03:55:03.168Z,102757.06
2023-05-04T03:57:32.853Z,102757.16
2023-05-04T04:00:01.318Z,102755.03
2023-05-04T04:02:29.559Z,102769.44
2023-05-04T04:04:58.016Z,102763.47
2023-05-04T04:07:26.517Z,102763.81
2023-05-04T04:09:54.618Z,102772.81
2023-05-04T04:12:22.802Z,102769.53
2023-05-04T04:14:53.387Z,102760.97
2023-05-04T04:17:21.782Z,102766.72
2023-05-04T04:19:50.028Z,102765.03
2023-05-04T04:22:18.401Z,102760.06
2023-05-04T04:24:46.817Z,102767.31
2023-05-04T04:27:15.031Z,102770.28
2023-05-04T04:29:43.218Z,102767.13
2023-05-04T04:32:12.689Z,102762.03
2023-05-04T04:34:40.949Z,102776.63
2023-05-04T04:37:09.400Z,102778.03
2023-05-04T04:39:37.832Z,102777.09
2023-05-04T04:42:05.966Z,102774.63
2023-05-04T04:44:34.264Z,102769.59
2023-05-04T04:47:02.629Z,102776.72
2023-05-04T04:49:32.345Z,102775.66
2023-05-04T04:52:02.490Z,102784.66
2023-05-04T04:54:31.749Z,102777.22
2023-05-04T04:57:00.808Z,102779.41
2023-05-04T04:59:29.036Z,102771.44
2023-05-04T05:01:58.762Z,102777.91
2023-05-04T05:04:29.488Z,102775.50
2023-05-04T05:06:59.381Z,102776.94
2023-05-04T05:09:27.514Z,102783.66
2023-05-04T05:11:55.894Z,102783.81
2023-05-04T05:14:24.015Z,102778.94
2023-05-04T05:16:52.385Z,102779.91
2023-05-04T05:19:20.725Z,102782.09
2023-05-04T05:21:49.355Z,102774.03
2023-05-04T05:24:18.806Z,102780.91
2023-05-04T05:26:47.056Z,102775.34
2023-05-04T05:29:15.135Z,102784.16
2023-05-04T05:31:43.131Z,102778.44
2023-05-04T05:34:14.509Z,102772.63
2023-05-04T05:36:42.961Z,102773.84
2023-05-04T05:39:11.476Z,102755.19
2023-05-04T05:41:41.373Z,102758.72
2023-05-04T05:44:10.538Z,102772.22
2023-05-04T05:46:40.727Z,102750.63
2023-05-04T05:49:08.937Z,102757.88
2023-05-04T05:51:36.914Z,102757.28
2023-05-04T05:54:05.183Z,102752.28
2023-05-04T05:56:33.607Z,102753.69
2023-05-04T05:59:03.198Z,102754.41
2023-05-04T06:01:31.414Z,102756.75
2023-05-04T06:04:02.520Z,102726.94
2023-05-04T06:06:30.902Z,102747.31
2023-05-04T06:09:00.573Z,102742.03
2023-05-04T06:11:28.808Z,102752.06
2023-05-04T06:13:56.898Z,102750.34
2023-05-04T06:16:26.804Z,102754.06
2023-05-04T06:18:55.192Z,102762.03
2023-05-04T06:21:23.332Z,102766.66
2023-05-04T06:23:51.484Z,102778.72
2023-05-04T06:26:20.185Z,102780.44
2023-05-04T06:28:48.328Z,102775.53
2023-05-04T06:31:16.702Z,102784.44
2023-05-04T06:33:46.340Z,102769.44
2023-05-04T06:36:14.655Z,102770.44
2023-05-04T06:38:43.060Z,102779.38
2023-05-04T06:41:11.451Z,102780.47
2023-05-04T06:43:42.218Z,102774.25
2023-05-04T06:46:10.594Z,102768.59
2023-05-04T06:48:38.701Z,102784.56
2023-05-04T06:51:08.168Z,102763.44
2023-05-04T06:53:36.982Z,102767.16
2023-05-04T06:56:05.636Z,102769.72
2023-05-04T06:58:33.648Z,102771.63
2023-05-04T07:01:02.169Z,102762.50
2023-05-04T07:03:30.823Z,102771.28
2023-05-04T07:05:59.229Z,102776.25
2023-05-04T07:08:32.993Z,102765.72
2023-05-04T07:11:01.143Z,102774.69
2023-05-04T07:13:29.520Z,102770.25
2023-05-04T07:15:57.915Z,102765.63
2023-05-04T07:18:26.405Z,102774.59
2023-05-04T07:21:01.713Z,102776.31
2023-05-04T07:23:40.983Z,102771.72
2023-05-04T07:26:09.312Z,102772.78
2023-05-04T07:28:38.762Z,102771.31
2023-05-04T07:31:07.117Z,102755.81
2023-05-04T07:33:35.276Z,102772.13
2023-05-04T07:36:03.399Z,102775.56
2023-05-04T07:38:32.048Z,102782.91
2023-05-04T07:41:02.098Z,102777.69
2023-05-04T07:43:30.492Z,102765.03
2023-05-04T07:45:59.033Z,102774.25
2023-05-04T07:48:27.774Z,102776.50
2023-05-04T07:50:55.964Z,102772.41
2023-05-04T07:53:25.668Z,102766.19
2023-05-04T07:55:54.494Z,102777.97
2023-05-04T07:58:24.087Z,102774.69
2023-05-04T08:00:52.469Z,102773.38
2023-05-04T08:03:21.172Z,102773.97
2023-05-04T08:05:49.284Z,102773.38
2023-05-04T08:08:17.419Z,102764.09
2023-05-04T08:10:45.693Z,102766.28
2023-05-04T08:13:13.772Z,102733.28
2023-05-04T08:15:44.278Z,102776.53
2023-05-04T08:18:12.599Z,102775.66
2023-05-04T08:20:40.993Z,102733.41
2023-05-04T08:23:09.397Z,102763.75
2023-05-04T08:25:37.570Z,102767.34
2023-05-04T08:28:06.538Z,102764.59
2023-05-04T08:30:34.828Z,102769.03
2023-05-04T08:33:04.906Z,102768.94
2023-05-04T08:35:36.006Z,102762.84
2023-05-04T08:38:04.157Z,102760.59
2023-05-04T08:40:32.485Z,102755.59
2023-05-04T08:43:01.144Z,102762.28
2023-05-04T08:45:32.341Z,102771.38
2023-05-04T08:48:01.044Z,102778.06
2023-05-04T08:50:30.956Z,102770.72
2023-05-04T08:53:01.124Z,102771.66
2023-05-04T08:55:29.577Z,102776.63
2023-05-04T08:58:01.678Z,102771.34
2023-05-04T09:00:30.860Z,102769.50
2023-05-04T09:03:00.806Z,102775.19
2023-05-04T09:05:30.854Z,102766.06
2023-05-04T09:07:59.460Z,102770.66
2023-05-04T09:10:29.662Z,102777.53
2023-05-04T09:12:58.420Z,102781.78
2023-05-04T09:15:26.653Z,102779.03
2023-05-04T09:17:59.440Z,102780.00
2023-05-04T09:20:27.612Z,102782.22
2023-05-04T09:23:07.187Z,102778.41
2023-05-04T09:25:36.419Z,102774.13
2023-05-04T09:28:04.917Z,102772.28
2023-05-04T09:30:33.363Z,102770.66
2023-05-04T09:33:04.445Z,102765.88
2023-05-04T09:35:33.955Z,102770.50
2023-05-04T09:38:04.746Z,102774.31
2023-05-04T09:40:33.758Z,102772.56
2023-05-04T09:43:02.200Z,102766.41
2023-05-04T09:45:40.366Z,102767.91
2023-05-04T09:48:19.187Z,102758.16
2023-05-04T09:50:53.011Z,102776.06
2023-05-04T09:53:25.320Z,102770.88
2023-05-04T09:56:06.469Z,102746.78
2023-05-04T09:58:36.566Z,102767.44
2023-05-04T10:01:05.817Z,102768.19
2023-05-04T10:03:34.446Z,102765.69
2023-05-04T10:06:05.889Z,102762.84
2023-05-04T10:08:35.950Z,102762.75
2023-05-04T10:11:04.220Z,102758.63
2023-05-04T10:13:32.594Z,102760.34
2023-05-04T10:16:15.440Z,102749.81
2023-05-04T10:19:05.194Z,102745.22
2023-05-04T10:21:47.374Z,102743.66
2023-05-04T10:24:30.072Z,102749.88
2023-05-04T10:27:07.288Z,102758.69
2023-05-04T10:29:36.149Z,102755.06
2023-05-04T10:32:04.943Z,102730.34
2023-05-04T10:34:34.585Z,102744.63
2023-05-04T10:37:04.132Z,102746.22
2023-05-04T10:39:36.386Z,102732.31
2023-05-04T10:42:05.612Z,102737.75
2023-05-04T10:44:35.456Z,102734.16
2023-05-04T10:47:06.900Z,102739.16
2023-05-04T10:49:36.111Z,102741.00
2023-05-04T10:52:12.800Z,102739.06
2023-05-04T10:54:44.185Z,102741.06
2023-05-04T10:57:13.931Z,102732.00
2023-05-04T10:59:42.501Z,102733.75
2023-05-04T11:02:10.869Z,102723.16
2023-05-04T11:04:39.643Z,102725.03
2023-05-04T11:07:09.027Z,102736.38
2023-05-04T11:09:38.857Z,102728.66
2023-05-04T11:12:11.184Z,102728.56
2023-05-04T11:14:43.346Z,102733.91
2023-05-04T11:19:54.333Z,102712.00
2023-05-04T11:22:23.327Z,102705.81
2023-05-04T11:24:51.668Z,102699.59
2023-05-04T11:27:25.811Z,102697.91
2023-05-04T11:29:57.909Z,102700.47
2023-05-04T11:32:36.090Z,102686.31
2023-05-04T11:35:06.596Z,102690.81
2023-05-04T11:37:40.902Z,102704.06
2023-05-04T11:40:14.226Z,102689.19
2023-05-04T11:42:44.712Z,102698.84
2023-05-04T11:45:17.603Z,102695.41
2023-05-04T11:47:46.794Z,102696.28
2023-05-04T11:50:16.898Z,102693.59
2023-05-04T11:52:45.929Z,102674.97
2023-05-04T11:55:25.649Z,102688.28
2023-05-04T11:57:59.671Z,102687.34
2023-05-04T12:00:42.078Z,102683.03
2023-05-04T12:03:13.070Z,102689.09
2023-05-04T12:05:48.225Z,102679.38
2023-05-04T12:08:27.459Z,102677.63
2023-05-04T12:11:10.684Z,102674.09
2023-05-04T12:13:40.862Z,102675.91
2023-05-04T12:16:13.268Z,102682.97
2023-05-04T12:18:42.369Z,102681.19
2023-05-04T12:21:12.092Z,102676.72
2023-05-04T12:23:41.200Z,102676.81
2023-05-04T12:26:10.392Z,102663.59
2023-05-04T12:28:41.343Z,102665.41
2023-05-04T12:31:10.394Z,102675.88
2023-05-04T12:33:38.946Z,102674.06
2023-05-04T12:36:08.275Z,102664.47
2023-05-04T12:38:37.706Z,102659.22
2023-05-04T12:41:06.442Z,102680.41
2023-05-04T12:43:34.824Z,102665.19
2023-05-04T12:46:04.840Z,102647.53
2023-05-04T12:48:33.280Z,102672.38
2023-05-04T12:51:04.057Z,102661.88
2023-05-04T12:53:33.238Z,102673.41
2023-05-04T12:56:03.779Z,102671.63
2023-05-04T12:58:32.624Z,102663.66
2023-05-04T13:01:01.138Z,102664.53
2023-05-04T13:03:31.171Z,102668.94
2023-05-04T13:05:59.675Z,102671.63
2023-05-04T13:08:28.240Z,102667.19
2023-05-04T13:10:56.528Z,102656.53
2023-05-04T13:13:28.850Z,102628.19
2023-05-04T13:15:57.606Z,102653.91
2023-05-04T13:18:27.776Z,102642.34
2023-05-04T13:20:57.804Z,102658.34
2023-05-04T13:23:26.504Z,102658.31
2023-05-04T13:25:57.656Z,102661.84
2023-05-04T13:28:25.881Z,102657.41
2023-05-04T13:30:54.493Z,102658.31
2023-05-04T13:35:58.741Z,102658.34
2023-05-04T13:38:27.438Z,102663.63
2023-05-04T13:40:56.468Z,102651.22
2023-05-04T13:43:25.571Z,102653.78
2023-05-04T13:45:53.802Z,102651.22
2023-05-04T13:48:21.977Z,102659.19
2023-05-04T13:50:50.581Z,102652.03
2023-05-04T13:53:20.328Z,102652.09
2023-05-04T13:55:48.633Z,102637.91
2023-05-04T13:58:17.396Z,102645.94
2023-05-04T14:00:45.651Z,102644.13
2023-05-04T14:03:13.755Z,102633.50
2023-05-04T14:05:42.834Z,102646.78
2023-05-04T14:08:10.986Z,102637.91
2023-05-04T14:10:40.658Z,102649.38
2023-05-04T14:13:08.970Z,102637.06
2023-05-04T14:15:37.125Z,102615.78
2023-05-04T14:18:05.584Z,102644.13
2023-05-04T14:20:34.068Z,102633.50
2023-05-04T14:23:02.511Z,102621.03
2023-05-04T14:25:30.676Z,102645.91
2023-05-04T14:28:00.902Z,102628.19
2023-05-04T14:30:28.939Z,102637.06
2023-05-04T14:32:58.403Z,102628.16
2023-05-04T14:35:27.126Z,102635.19
2023-05-04T14:37:55.607Z,102626.34
2023-05-04T14:40:24.017Z,102631.66
2023-05-04T14:42:52.551Z,102635.13
2023-05-04T14:45:22.725Z,102605.06
2023-05-04T14:47:50.840Z,102628.09
2023-05-04T14:50:19.401Z,102621.09
2023-05-04T14:52:47.712Z,102614.00
2023-05-04T14:55:16.040Z,102631.72
2023-05-04T14:57:44.532Z,102626.41
2023-05-04T15:00:13.812Z,102631.72
2023-05-04T15:02:43.459Z,102631.66
2023-05-04T15:05:12.800Z,102640.44
2023-05-04T15:07:40.980Z,102635.09
2023-05-04T15:10:10.911Z,102618.28
2023-05-04T15:12:44.900Z,102630.63
2023-05-04T15:15:13.818Z,102634.91
2023-05-04T15:17:43.924Z,102636.66
2023-05-04T15:20:14.722Z,102636.72
2023-05-04T15:22:43.250Z,102602.97
2023-05-04T15:25:12.322Z,102630.41
2023-05-04T15:27:41.035Z,102641.94
2023-05-04T15:30:10.220Z,102637.47
2023-05-04T15:32:38.519Z,102640.91
2023-05-04T15:35:08.923Z,102639.09
2023-05-04T15:37:37.077Z,102641.06
2023-05-04T15:40:06.226Z,102638.28
2023-05-04T15:42:34.842Z,102627.66
2023-05-04T15:45:03.442Z,102632.00
2023-05-04T15:47:37.852Z,102625.84
2023-05-04T15:50:08.509Z,102630.31
2023-05-04T15:52:37.586Z,102632.16
2023-05-04T15:55:23.285Z,102647.03
2023-05-04T15:57:52.738Z,102640.91
2023-05-04T16:00:22.292Z,102643.56
2023-05-04T16:02:52.031Z,102636.56
2023-05-04T16:05:22.271Z,102644.41
2023-05-04T16:07:50.936Z,102647.06
2023-05-04T16:10:19.293Z,102632.91
2023-05-04T16:12:48.082Z,102633.06
2023-05-04T16:15:16.343Z,102625.06
2023-05-04T16:17:44.470Z,102622.28
2023-05-04T16:20:13.442Z,102629.31
2023-05-04T16:22:42.997Z,102627.56
2023-05-04T16:25:11.854Z,102616.69
2023-05-04T16:27:40.250Z,102631.03
2023-05-04T16:30:10.111Z,102629.19
2023-05-04T16:32:38.869Z,102634.53
2023-05-04T16:35:09.504Z,102633.66
2023-05-04T16:37:38.363Z,102636.34
2023-05-04T16:40:16.354Z,102636.22
2023-05-04T16:42:44.803Z,102650.09
2023-05-04T16:45:14.773Z,102644.03
2023-05-04T16:47:43.525Z,102653.69
2023-05-04T16:50:12.565Z,102654.28
2023-05-04T16:52:41.479Z,102648.94
2023-05-04T16:55:12.873Z,102655.00
2023-05-04T16:57:42.871Z,102648.78
2023-05-04T17:00:13.555Z,102655.09
2023-05-04T17:02:42.264Z,102643.22
2023-05-04T17:05:11.488Z,102639.81
2023-05-04T17:07:42.354Z,102649.72
2023-05-04T17:10:12.329Z,102660.81
2023-05-04T17:12:40.886Z,102650.31
2023-05-04T17:15:12.068Z,102658.13
2023-05-04T17:17:40.383Z,102658.22
2023-05-04T17:20:14.937Z,102659.97
2023-05-04T17:22:43.728Z,102649.47
2023-05-04T17:25:13.228Z,102657.13
2023-05-04T17:27:44.019Z,102666.91
2023-05-04T17:30:14.828Z,102662.56
2023-05-04T17:32:43.171Z,102666.59
2023-05-04T17:35:24.524Z,102670.47
2023-05-04T17:38:21.044Z,102664.28
2023-05-04T17:40:49.225Z,102673.06
2023-05-04T17:43:17.423Z,102678.34
2023-05-04T17:45:47.190Z,102684.66
2023-05-04T17:48:16.410Z,102687.06
2023-05-04T17:50:45.831Z,102690.56
2023-05-04T17:53:14.324Z,102699.31
2023-05-04T17:55:42.728Z,102685.28
2023-05-04T17:58:10.982Z,102683.59
2023-05-04T18:00:39.208Z,102695.97
2023-05-04T18:03:09.185Z,102689.00
2023-05-04T18:05:37.989Z,102699.31
2023-05-04T18:08:07.032Z,102699.25
2023-05-04T18:10:38.204Z,102698.22
2023-05-04T18:13:06.978Z,102689.94
2023-05-04T18:15:35.705Z,102703.28
2023-05-04T18:18:04.067Z,102710.53
2023-05-04T18:20:45.751Z,102703.50
2023-05-04T18:23:14.031Z,102713.25
2023-05-04T18:25:42.167Z,102705.91
2023-05-04T18:28:10.320Z,102719.81
2023-05-04T18:30:39.466Z,102719.75
2023-05-04T18:33:08.274Z,102701.94
2023-05-04T18:35:38.170Z,102727.59
2023-05-04T18:38:07.575Z,102729.97
2023-05-04T18:40:39.566Z,102725.56
2023-05-04T18:43:07.942Z,102736.66
2023-05-04T18:45:36.197Z,102733.09
2023-05-04T18:48:08.667Z,102747.41
2023-05-04T18:50:42.778Z,102746.38
2023-05-04T18:53:11.321Z,102747.53
2023-05-04T18:55:42.824Z,102740.19
2023-05-04T18:58:14.367Z,102743.59
2023-05-04T19:00:46.377Z,102755.63
2023-05-04T19:03:16.384Z,102757.34
2023-05-04T19:05:46.352Z,102760.97
2023-05-04T19:08:14.439Z,102754.66
2023-05-04T19:10:43.675Z,102762.56
2023-05-04T19:13:12.259Z,102761.81
2023-05-04T19:15:40.705Z,102760.59
2023-05-04T19:18:10.563Z,102765.94
2023-05-04T19:20:38.968Z,102771.06
2023-05-04T19:23:10.569Z,102774.78
2023-05-04T19:25:39.357Z,102779.63
2023-05-04T19:28:09.659Z,102758.34
2023-05-04T19:30:39.176Z,102776.34
2023-05-04T19:33:13.752Z,102781.00
2023-05-04T19:35:43.538Z,102742.09
2023-05-04T19:38:15.395Z,102778.47
2023-05-04T19:40:43.567Z,102791.63
2023-05-04T19:43:11.880Z,102791.47
2023-05-04T19:45:41.134Z,102782.78
2023-05-04T19:48:10.110Z,102790.94
2023-05-04T19:50:38.649Z,102799.53
2023-05-04T19:53:07.382Z,102798.63
2023-05-04T19:55:37.527Z,102799.44
2023-05-04T19:58:10.852Z,102782.44
2023-05-04T20:00:41.930Z,102800.38
2023-05-04T20:03:10.672Z,102794.81
2023-05-04T20:05:39.281Z,102799.06
2023-05-04T20:08:07.424Z,102795.59
2023-05-04T20:10:37.284Z,102798.59
2023-05-04T20:13:07.210Z,102797.75
2023-05-04T20:15:35.425Z,102788.88
2023-05-04T20:18:03.896Z,102798.59
2023-05-04T20:20:34.538Z,102797.06
2023-05-04T20:23:03.738Z,102784.34
2023-05-04T20:25:32.410Z,102793.19
2023-05-04T20:28:02.297Z,102804.13
2023-05-04T20:30:31.101Z,102789.47
2023-05-04T20:32:59.777Z,102799.75
2023-05-04T20:35:28.069Z,102794.28
2023-05-04T20:37:56.409Z,102801.91
2023-05-04T20:40:25.488Z,102790.72
2023-05-04T20:42:53.686Z,102788.88
2023-05-04T20:45:23.361Z,102801.91
2023-05-04T20:47:51.578Z,102798.53
2023-05-04T20:50:20.456Z,102801.03
2023-05-04T20:52:48.588Z,102790.91
2023-05-04T20:55:17.862Z,102797.44
2023-05-04T20:57:46.350Z,102778.69
2023-05-04T21:00:15.663Z,102796.50
2023-05-04T21:02:45.373Z,102796.41
2023-05-04T21:05:13.586Z,102804.91
2023-05-04T21:07:41.719Z,102803.41
2023-05-04T21:10:10.804Z,102798.97
2023-05-04T21:12:39.042Z,102805.31
2023-05-04T21:15:08.722Z,102795.31
2023-05-04T21:17:37.339Z,102807.56
2023-05-04T21:20:09.587Z,102808.88
2023-05-04T21:22:37.873Z,102796.66
2023-05-04T21:25:06.727Z,102800.63
2023-05-04T21:27:34.919Z,102808.25
2023-05-04T21:30:05.038Z,102810.00
2023-05-04T21:32:33.379Z,102801.56
2023-05-04T21:35:01.898Z,102807.56
2023-05-04T21:37:32.008Z,102808.97
2023-05-04T21:40:01.088Z,102805.41
2023-05-04T21:42:29.488Z,102810.84
2023-05-04T21:44:58.138Z,102808.78
2023-05-04T21:47:26.509Z,102803.44
2023-05-04T21:49:55.256Z,102807.69
2023-05-04T21:52:23.948Z,102805.09
2023-05-04T21:54:53.493Z,102810.84
2023-05-04T21:57:21.773Z,102811.19
2023-05-04T21:59:50.089Z,102802.78
2023-05-04T22:02:18.231Z,102817.41
2023-05-04T22:04:46.422Z,102815.34
2023-05-04T22:07:15.597Z,102816.03
2023-05-04T22:09:43.709Z,102817.63
2023-05-04T22:12:13.415Z,102828.78
2023-05-04T22:14:42.637Z,102817.69
2023-05-04T22:17:10.971Z,102825.38
2023-05-04T22:19:39.596Z,102829.44
2023-05-04T22:22:07.801Z,102829.81
2023-05-04T22:24:35.915Z,102818.88
2023-05-04T22:27:04.632Z,102812.38
2023-05-04T22:29:35.198Z,102809.31
2023-05-04T22:32:03.496Z,102826.56
2023-05-04T22:34:32.016Z,102821.66
2023-05-04T22:37:00.311Z,102832.34
2023-05-04T22:39:28.538Z,102831.63
2023-05-04T22:41:56.712Z,102842.06
2023-05-04T22:44:25.299Z,102804.28
2023-05-04T22:46:54.708Z,102842.16
2023-05-04T22:49:22.932Z,102836.88
2023-05-04T22:51:51.172Z,102850.16
2023-05-04T22:54:19.196Z,102840.75
2023-05-04T22:56:47.312Z,102839.19
2023-05-04T22:59:15.494Z,102841.78
2023-05-04T23:01:43.922Z,102849.72
2023-05-04T23:04:13.678Z,102842.34
2023-05-04T23:06:41.920Z,102845.34
2023-05-04T23:09:10.000Z,102835.09
2023-05-04T23:11:38.365Z,102831.44
2023-05-04T23:14:06.858Z,102849.03
2023-05-04T23:16:35.660Z,102846.84
2023-05-04T23:19:04.013Z,102845.22
2023-05-04T23:21:33.838Z,102839.03
2023-05-04T23:24:02.162Z,102837.81
2023-05-04T23:26:30.554Z,102832.47
2023-05-04T23:28:58.682Z,102838.28
2023-05-04T23:31:26.963Z,102833.94
2023-05-04T23:33:55.712Z,102842.34
2023-05-04T23:36:23.810Z,102841.56
2023-05-04T23:38:53.223Z,102845.44
2023-05-04T23:41:21.501Z,102825.97
2023-05-04T23:43:49.575Z,102855.41
2023-05-04T23:46:18.020Z,102849.00
2023-05-04T23:48:46.556Z,102863.94
2023-05-04T23:51:14.795Z,102847.03
2023-05-04T23:53:42.847Z,102857.72
2023-05-04T23:56:13.132Z,102854.31
2023-05-04T23:58:42.596Z,102863.00
